createdAt,value
2018-06-11T00:01:50.137Z,96.20
2018-06-11T00:04:22.567Z,96.30
2018-06-11T00:06:54.960Z,96.30
2018-06-11T00:09:27.364Z,96.40
2018-06-11T00:11:59.765Z,96.40
2018-06-11T00:14:32.180Z,96.50
2018-06-11T00:17:04.584Z,96.50
2018-06-11T00:19:36.999Z,96.50
2018-06-11T00:22:09.401Z,96.50
2018-06-11T00:24:41.809Z,96.60
2018-06-11T00:27:14.210Z,96.70
2018-06-11T00:29:46.858Z,96.70
2018-06-11T00:32:19.629Z,96.70
2018-06-11T00:34:52.150Z,96.70
2018-06-11T00:37:24.545Z,96.80
2018-06-11T00:39:56.950Z,96.80
2018-06-11T00:42:29.881Z,97.00
2018-06-11T00:45:02.628Z,97.00
2018-06-11T00:47:35.297Z,97.00
2018-06-11T00:50:07.971Z,96.90
2018-06-11T00:52:40.348Z,96.90
2018-06-11T00:55:13.040Z,96.90
2018-06-11T00:57:45.646Z,96.90
2018-06-11T01:00:18.040Z,97.00
2018-06-11T01:02:50.529Z,96.90
2018-06-11T01:05:23.244Z,97.00
2018-06-11T01:07:55.642Z,97.00
2018-06-11T01:10:28.030Z,97.10
2018-06-11T01:13:00.865Z,97.10
2018-06-11T01:15:33.480Z,97.10
2018-06-11T01:18:05.860Z,97.00
2018-06-11T01:20:38.257Z,97.00
2018-06-11T01:23:10.853Z,97.10
2018-06-11T01:25:43.521Z,97.10
2018-06-11T01:28:15.897Z,97.10
2018-06-11T01:30:48.526Z,97.10
2018-06-11T01:33:20.941Z,97.10
2018-06-11T01:35:53.329Z,97.10
2018-06-11T01:38:25.725Z,97.10
2018-06-11T01:40:58.128Z,97.10
2018-06-11T01:43:30.744Z,97.20
2018-06-11T01:46:03.266Z,97.30
2018-06-11T01:48:35.656Z,97.40
2018-06-11T01:51:08.069Z,97.40
2018-06-11T01:53:40.756Z,97.70
2018-06-11T01:56:13.169Z,97.30
2018-06-11T01:58:45.570Z,97.50
2018-06-11T02:01:17.979Z,97.40
2018-06-11T02:03:50.649Z,97.30
2018-06-11T02:06:23.073Z,97.50
2018-06-11T02:08:55.737Z,97.50
2018-06-11T02:11:28.389Z,97.60
2018-06-11T02:14:01.102Z,97.60
2018-06-11T02:16:33.836Z,97.80
2018-06-11T02:19:06.409Z,97.80
2018-06-11T02:21:39.131Z,97.80
2018-06-11T02:24:11.526Z,97.80
2018-06-11T02:26:44.010Z,97.90
2018-06-11T02:29:16.383Z,98.00
2018-06-11T02:31:48.996Z,98.10
2018-06-11T02:34:21.437Z,98.20
2018-06-11T02:36:54.394Z,98.20
2018-06-11T02:39:26.782Z,98.30
2018-06-11T02:41:59.438Z,98.40
2018-06-11T02:44:32.118Z,98.40
2018-06-11T02:47:04.625Z,98.30
2018-06-11T02:49:37.026Z,98.40
2018-06-11T02:52:09.742Z,98.40
2018-06-11T02:54:42.144Z,98.50
2018-06-11T02:57:14.589Z,98.50
2018-06-11T02:59:47.214Z,98.60
2018-06-11T03:02:19.953Z,98.50
2018-06-11T03:04:52.353Z,98.60
2018-06-11T03:07:25.074Z,98.60
2018-06-11T03:09:57.471Z,98.60
2018-06-11T03:12:29.869Z,98.70
2018-06-11T03:15:02.261Z,98.70
2018-06-11T03:17:34.965Z,99.00
2018-06-11T03:20:07.621Z,99.10
2018-06-11T03:22:40.558Z,99.00
2018-06-11T03:25:12.948Z,99.10
2018-06-11T03:27:45.989Z,99.10
2018-06-11T03:30:18.384Z,99.20
2018-06-11T03:32:50.801Z,99.40
2018-06-11T03:35:23.489Z,99.20
2018-06-11T03:37:55.896Z,99.30
2018-06-11T03:40:28.595Z,99.40
2018-06-11T03:43:01.231Z,99.40
2018-06-11T03:45:33.630Z,99.20
2018-06-11T03:48:06.055Z,99.20
2018-06-11T03:50:38.448Z,99.20
2018-06-11T03:53:11.166Z,99.20
2018-06-11T03:55:43.578Z,99.30
2018-06-11T03:58:15.994Z,99.10
2018-06-11T04:03:20.978Z,98.90
2018-06-11T04:05:53.411Z,98.70
2018-06-11T04:08:25.825Z,98.60
2018-06-11T04:10:58.287Z,98.60
2018-06-11T04:13:30.705Z,98.20
2018-06-11T04:16:03.121Z,98.20
2018-06-11T04:18:35.818Z,98.00
2018-06-11T04:21:08.549Z,98.00
2018-06-11T04:23:40.945Z,97.70
2018-06-11T04:26:13.633Z,97.60
2018-06-11T04:28:46.035Z,97.60
2018-06-11T04:31:18.441Z,97.40
2018-06-11T04:33:50.851Z,97.40
2018-06-11T04:36:23.507Z,97.20
2018-06-11T04:38:56.272Z,96.90
2018-06-11T04:41:28.785Z,97.10
2018-06-11T04:44:01.192Z,97.00
2018-06-11T04:46:33.593Z,96.90
2018-06-11T04:49:06.196Z,96.80
2018-06-11T04:51:38.589Z,96.80
2018-06-11T04:54:11.053Z,96.80
2018-06-11T04:56:43.526Z,96.60
2018-06-11T04:59:16.206Z,96.60
2018-06-11T05:01:48.597Z,96.40
2018-06-11T05:04:21.360Z,96.40
2018-06-11T05:06:53.997Z,96.00
2018-06-11T05:09:26.373Z,96.20
2018-06-11T05:11:58.765Z,95.80
2018-06-11T05:14:31.414Z,95.60
2018-06-11T05:17:03.812Z,95.40
2018-06-11T05:19:36.714Z,94.90
2018-06-11T05:22:09.193Z,95.20
2018-06-11T05:24:41.953Z,95.30
2018-06-11T05:27:14.615Z,95.50
2018-06-11T05:29:46.985Z,95.50
2018-06-11T05:32:19.707Z,95.20
2018-06-11T05:34:52.403Z,95.10
2018-06-11T05:37:25.449Z,95.50
2018-06-11T05:39:58.348Z,95.50
2018-06-11T05:42:30.822Z,95.60
2018-06-11T05:45:03.216Z,95.20
2018-06-11T05:47:35.975Z,95.40
2018-06-11T05:50:08.418Z,95.50
2018-06-11T05:52:41.106Z,95.30
2018-06-11T05:55:13.812Z,95.40
2018-06-11T05:57:46.204Z,95.20
2018-06-11T06:00:18.584Z,95.30
2018-06-11T06:02:50.986Z,94.40
2018-06-11T06:05:23.360Z,94.10
2018-06-11T06:07:55.758Z,92.80
2018-06-11T06:10:28.161Z,92.10
2018-06-11T06:13:00.820Z,91.10
2018-06-11T06:15:33.204Z,90.40
2018-06-11T06:18:05.590Z,89.70
2018-06-11T06:20:37.970Z,88.30
2018-06-11T06:23:10.361Z,87.90
2018-06-11T06:25:42.985Z,85.20
2018-06-11T06:28:15.666Z,84.90
2018-06-11T06:30:48.304Z,84.30
2018-06-11T06:33:20.732Z,84.10
2018-06-11T06:35:53.106Z,84.30
2018-06-11T06:38:25.575Z,83.00
2018-06-11T06:40:58.650Z,84.30
2018-06-11T06:43:31.041Z,83.00
2018-06-11T06:46:03.447Z,84.20
2018-06-11T06:48:36.142Z,84.40
2018-06-11T06:51:08.537Z,83.90
2018-06-11T06:56:13.170Z,82.90
2018-06-11T06:58:45.569Z,82.60
2018-06-11T07:01:17.948Z,82.90
2018-06-11T07:03:50.394Z,83.40
2018-06-11T07:06:22.771Z,83.60
2018-06-11T07:08:55.165Z,85.00
2018-06-11T07:11:27.564Z,85.00
2018-06-11T07:14:00.194Z,85.00
2018-06-11T07:19:05.100Z,82.70
2018-06-11T07:21:37.493Z,81.80
2018-06-11T07:24:09.988Z,80.80
2018-06-11T07:26:42.467Z,80.20
2018-06-11T07:29:14.848Z,79.20
2018-06-11T07:31:47.241Z,77.50
2018-06-11T07:34:19.968Z,78.60
2018-06-11T07:36:52.563Z,77.20
2018-06-11T07:39:25.217Z,78.70
2018-06-11T07:41:57.666Z,78.10
2018-06-11T07:44:30.073Z,77.90
2018-06-11T07:47:02.838Z,78.00
2018-06-11T07:49:35.271Z,76.60
2018-06-11T07:52:07.672Z,76.20
2018-06-11T07:54:40.089Z,75.20
2018-06-11T07:57:12.516Z,75.10
2018-06-11T07:59:45.223Z,72.90
2018-06-11T08:02:17.698Z,73.20
2018-06-11T08:04:50.403Z,72.30
2018-06-11T08:07:22.963Z,71.50
2018-06-11T08:09:55.650Z,70.20
2018-06-11T08:12:28.310Z,69.40
2018-06-11T08:15:01.110Z,73.00
2018-06-11T08:17:33.789Z,73.50
2018-06-11T08:20:06.230Z,73.70
2018-06-11T08:22:38.648Z,74.30
2018-06-11T08:25:11.413Z,74.40
2018-06-11T08:27:44.403Z,75.60
2018-06-11T08:30:16.832Z,77.40
2018-06-11T08:32:49.260Z,78.30
2018-06-11T08:35:21.669Z,79.20
2018-06-11T08:37:54.153Z,79.50
2018-06-11T08:40:26.611Z,79.00
2018-06-11T08:42:59.021Z,80.00
2018-06-11T08:45:31.452Z,80.10
2018-06-11T08:48:03.861Z,81.40
2018-06-11T08:50:36.261Z,82.70
2018-06-11T08:53:08.638Z,82.90
2018-06-11T08:55:41.291Z,84.60
2018-06-11T08:58:13.681Z,85.00
2018-06-11T09:00:46.153Z,85.50
2018-06-11T09:03:19.097Z,85.30
2018-06-11T09:05:51.520Z,84.80
2018-06-11T09:08:24.358Z,83.60
2018-06-11T09:10:57.071Z,82.90
2018-06-11T09:13:29.452Z,81.60
2018-06-11T09:16:01.862Z,80.30
2018-06-11T09:18:34.264Z,79.70
2018-06-11T09:23:39.178Z,79.80
2018-06-11T09:26:11.815Z,79.20
2018-06-11T09:28:44.200Z,79.10
2018-06-11T09:31:16.682Z,80.50
2018-06-11T09:33:49.174Z,80.30
2018-06-11T09:36:21.577Z,80.90
2018-06-11T09:38:54.002Z,81.10
2018-06-11T09:41:26.667Z,81.10
2018-06-11T09:43:59.461Z,79.80
2018-06-11T09:46:32.077Z,77.20
2018-06-11T09:49:04.651Z,76.20
2018-06-11T09:51:37.354Z,76.80
2018-06-11T09:54:09.846Z,77.80
2018-06-11T09:56:42.529Z,77.70
2018-06-11T09:59:15.248Z,78.10
2018-06-11T10:01:48.273Z,78.40
2018-06-11T10:06:52.968Z,78.30
2018-06-11T10:09:25.428Z,76.20
2018-06-11T10:11:58.092Z,75.40
2018-06-11T10:14:30.751Z,75.30
2018-06-11T10:17:03.445Z,76.30
2018-06-11T10:19:35.829Z,74.80
2018-06-11T10:22:08.212Z,72.40
2018-06-11T10:24:40.611Z,72.10
2018-06-11T10:27:13.141Z,71.60
2018-06-11T10:29:45.544Z,73.50
2018-06-11T10:32:18.208Z,73.60
2018-06-11T10:34:51.176Z,74.20
2018-06-11T10:37:23.908Z,74.00
2018-06-11T10:39:56.646Z,73.20
2018-06-11T10:42:29.309Z,72.20
2018-06-11T10:45:01.706Z,71.10
2018-06-11T10:47:34.106Z,71.20
2018-06-11T10:50:06.503Z,71.20
2018-06-11T10:52:39.004Z,71.90
2018-06-11T10:57:43.873Z,73.00
2018-06-11T11:00:16.601Z,73.70
2018-06-11T11:02:48.982Z,73.20
2018-06-11T11:05:21.395Z,73.00
2018-06-11T11:07:53.772Z,72.20
2018-06-11T11:10:26.180Z,71.40
2018-06-11T11:12:58.793Z,70.10
2018-06-11T11:15:31.187Z,70.50
2018-06-11T11:18:03.596Z,69.50
2018-06-11T11:20:36.317Z,70.30
2018-06-11T11:23:08.962Z,69.80
2018-06-11T11:25:41.370Z,68.70
2018-06-11T11:28:13.759Z,68.60
2018-06-11T11:30:46.422Z,67.20
2018-06-11T11:33:19.169Z,66.40
2018-06-11T11:35:51.573Z,65.40
2018-06-11T11:38:24.197Z,66.30
2018-06-11T11:40:56.609Z,67.20
2018-06-11T11:43:28.997Z,66.00
2018-06-11T11:46:01.456Z,67.00
2018-06-11T11:48:34.461Z,67.30
2018-06-11T11:51:06.888Z,68.40
2018-06-11T11:53:39.570Z,68.60
2018-06-11T11:56:12.286Z,69.10
2018-06-11T11:58:44.964Z,68.60
2018-06-11T12:01:17.430Z,68.60
2018-06-11T12:03:49.829Z,67.80
2018-06-11T12:06:22.255Z,68.30
2018-06-11T12:08:54.962Z,67.40
2018-06-11T12:11:27.458Z,67.60
2018-06-11T12:13:59.861Z,68.10
2018-06-11T12:16:32.873Z,67.10
2018-06-11T12:19:05.643Z,67.40
2018-06-11T12:21:38.085Z,65.30
2018-06-11T12:24:10.495Z,66.60
2018-06-11T12:26:42.917Z,65.50
2018-06-11T12:29:15.632Z,66.30
2018-06-11T12:31:48.068Z,66.90
2018-06-11T12:34:20.464Z,65.70
2018-06-11T12:36:52.883Z,67.00
2018-06-11T12:39:25.522Z,66.30
2018-06-11T12:41:57.937Z,65.80
2018-06-11T12:44:30.396Z,66.80
2018-06-11T12:47:02.849Z,66.10
2018-06-11T12:49:35.526Z,66.40
2018-06-11T12:52:08.052Z,64.70
2018-06-11T12:54:40.783Z,63.90
2018-06-11T12:57:13.213Z,64.20
2018-06-11T12:59:45.609Z,65.50
2018-06-11T13:02:18.038Z,64.60
2018-06-11T13:04:50.445Z,64.40
2018-06-11T13:07:22.843Z,63.30
2018-06-11T13:09:55.243Z,63.40
2018-06-11T13:12:27.937Z,62.50
2018-06-11T13:15:00.309Z,65.30
2018-06-11T13:17:32.729Z,62.20
2018-06-11T13:20:05.670Z,60.90
2018-06-11T13:22:38.060Z,61.30
2018-06-11T13:25:10.438Z,59.40
2018-06-11T13:27:42.854Z,59.70
2018-06-11T13:30:15.246Z,59.70
2018-06-11T13:32:47.899Z,60.10
2018-06-11T13:35:20.566Z,60.00
2018-06-11T13:37:53.497Z,61.00
2018-06-11T13:40:26.139Z,61.70
2018-06-11T13:42:58.540Z,60.70
2018-06-11T13:45:30.925Z,60.40
2018-06-11T13:48:03.684Z,60.30
2018-06-11T13:50:36.381Z,59.80
2018-06-11T13:53:08.816Z,59.40
2018-06-11T13:55:41.261Z,58.80
2018-06-11T13:58:13.673Z,58.80
2018-06-11T14:00:46.056Z,59.20
2018-06-11T14:03:18.485Z,59.70
2018-06-11T14:05:50.868Z,59.70
2018-06-11T14:08:23.288Z,59.90
2018-06-11T14:10:55.666Z,59.50
2018-06-11T14:13:28.101Z,60.00
2018-06-11T14:16:00.717Z,59.80
2018-06-11T14:18:33.129Z,60.00
2018-06-11T14:21:05.520Z,60.00
2018-06-11T14:23:37.980Z,60.30
2018-06-11T14:26:10.375Z,61.50
2018-06-11T14:28:42.864Z,61.10
2018-06-11T14:31:15.453Z,60.40
2018-06-11T14:33:48.100Z,60.80
2018-06-11T14:36:20.755Z,62.10
2018-06-11T14:38:53.385Z,62.60
2018-06-11T14:41:26.065Z,63.10
2018-06-11T14:43:58.724Z,63.30
2018-06-11T14:46:31.629Z,64.20
2018-06-11T14:49:04.376Z,64.40
2018-06-11T14:51:36.811Z,65.00
2018-06-11T14:54:09.212Z,65.10
2018-06-11T14:56:41.613Z,66.30
2018-06-11T14:59:14.289Z,65.40
2018-06-11T15:01:46.949Z,66.30
2018-06-11T15:04:19.376Z,65.60
2018-06-11T15:06:52.084Z,65.70
2018-06-11T15:09:24.833Z,65.30
2018-06-11T15:11:57.192Z,65.30
2018-06-11T15:14:29.605Z,66.60
2018-06-11T15:17:02.257Z,66.80
2018-06-11T15:19:35.033Z,67.20
2018-06-11T15:22:07.416Z,67.00
2018-06-11T15:24:40.140Z,66.30
2018-06-11T15:27:12.812Z,66.00
2018-06-11T15:29:45.738Z,65.40
2018-06-11T15:32:18.135Z,65.20
2018-06-11T15:34:50.549Z,65.10
2018-06-11T15:37:23.226Z,64.80
2018-06-11T15:39:55.914Z,64.40
2018-06-11T15:42:28.824Z,64.60
2018-06-11T15:45:01.482Z,65.30
2018-06-11T15:47:34.132Z,64.80
2018-06-11T15:50:06.581Z,65.00
2018-06-11T15:52:38.985Z,65.00
2018-06-11T15:55:11.645Z,63.70
2018-06-11T15:57:44.021Z,64.30
2018-06-11T16:00:16.419Z,63.70
2018-06-11T16:02:48.873Z,63.30
2018-06-11T16:05:21.524Z,63.20
2018-06-11T16:07:53.920Z,63.50
2018-06-11T16:10:26.309Z,63.50
2018-06-11T16:12:59.020Z,63.50
2018-06-11T16:15:31.390Z,63.80
2018-06-11T16:18:03.833Z,63.90
2018-06-11T16:20:36.218Z,63.70
2018-06-11T16:23:08.605Z,63.40
2018-06-11T16:25:40.977Z,63.70
2018-06-11T16:28:13.400Z,63.00
2018-06-11T16:30:46.075Z,62.60
2018-06-11T16:33:18.606Z,61.70
2018-06-11T16:35:50.976Z,62.00
2018-06-11T16:38:23.656Z,60.50
2018-06-11T16:40:56.053Z,60.00
2018-06-11T16:43:28.770Z,59.80
2018-06-11T16:46:01.255Z,59.80
2018-06-11T16:48:34.169Z,60.10
2018-06-11T16:51:06.584Z,58.80
2018-06-11T16:53:39.321Z,59.80
2018-06-11T16:56:11.718Z,59.90
2018-06-11T16:58:44.441Z,59.80
2018-06-11T17:01:16.834Z,60.00
2018-06-11T17:03:49.260Z,59.60
2018-06-11T17:06:21.682Z,59.60
2018-06-11T17:08:54.091Z,59.80
2018-06-11T17:11:26.494Z,59.20
2018-06-11T17:13:59.497Z,59.00
2018-06-11T17:16:32.169Z,59.60
2018-06-11T17:19:04.589Z,59.80
2018-06-11T17:21:37.000Z,59.80
2018-06-11T17:24:09.416Z,59.80
2018-06-11T17:26:41.809Z,60.20
2018-06-11T17:29:14.242Z,60.00
2018-06-11T17:31:46.915Z,60.40
2018-06-11T17:34:19.588Z,61.40
2018-06-11T17:36:51.989Z,61.30
2018-06-11T17:39:24.396Z,61.50
2018-06-11T17:41:57.042Z,61.90
2018-06-11T17:44:29.474Z,62.30
2018-06-11T17:47:01.874Z,62.10
2018-06-11T17:49:34.289Z,62.70
2018-06-11T17:52:06.722Z,62.90
2018-06-11T17:54:39.173Z,63.70
2018-06-11T17:57:11.549Z,63.60
2018-06-11T17:59:43.952Z,63.90
2018-06-11T18:04:49.106Z,64.90
2018-06-11T18:07:21.508Z,64.60
2018-06-11T18:09:53.917Z,64.50
2018-06-11T18:12:26.597Z,65.10
2018-06-11T18:14:59.286Z,64.90
2018-06-11T18:17:31.946Z,65.20
2018-06-11T18:20:04.368Z,66.00
2018-06-11T18:22:37.038Z,66.00
2018-06-11T18:25:09.482Z,65.70
2018-06-11T18:27:42.197Z,66.00
2018-06-11T18:30:14.609Z,66.20
2018-06-11T18:32:47.035Z,66.50
2018-06-11T18:35:19.452Z,66.60
2018-06-11T18:37:52.186Z,66.40
2018-06-11T18:40:25.072Z,67.00
2018-06-11T18:42:57.468Z,67.30
2018-06-11T18:45:30.436Z,67.20
2018-06-11T18:48:02.857Z,67.40
2018-06-11T18:50:35.286Z,67.80
2018-06-11T18:53:07.959Z,67.60
2018-06-11T18:55:40.635Z,68.20
2018-06-11T18:58:13.044Z,68.30
2018-06-11T19:00:45.470Z,68.20
2018-06-11T19:03:17.877Z,68.70
2018-06-11T19:05:50.320Z,68.90
2018-06-11T19:08:22.764Z,68.60
2018-06-11T19:10:55.221Z,68.70
2018-06-11T19:13:27.617Z,69.30
2018-06-11T19:16:00.156Z,69.30
2018-06-11T19:18:32.549Z,69.50
2018-06-11T19:21:05.146Z,69.40
2018-06-11T19:23:37.914Z,69.90
2018-06-11T19:26:10.345Z,70.50
2018-06-11T19:28:42.736Z,70.50
2018-06-11T19:31:15.158Z,71.40
2018-06-11T19:33:47.642Z,71.70
2018-06-11T19:36:20.088Z,71.80
2018-06-11T19:38:52.486Z,72.70
2018-06-11T19:41:25.228Z,72.80
2018-06-11T19:43:57.641Z,72.60
2018-06-11T19:46:30.424Z,73.20
2018-06-11T19:49:02.824Z,73.60
2018-06-11T19:51:35.222Z,73.70
2018-06-11T19:54:07.600Z,74.30
2018-06-11T19:56:40.378Z,74.20
2018-06-11T19:59:13.041Z,74.20
2018-06-11T20:01:45.448Z,74.10
2018-06-11T20:04:18.110Z,74.40
2018-06-11T20:06:51.448Z,75.30
2018-06-11T20:09:23.823Z,75.10
2018-06-11T20:11:56.218Z,75.40
2018-06-11T20:14:28.604Z,76.20
2018-06-11T20:17:01.017Z,75.40
2018-06-11T20:19:33.413Z,75.40
2018-06-11T20:22:05.848Z,75.70
2018-06-11T20:24:38.247Z,75.20
2018-06-11T20:27:10.877Z,75.20
2018-06-11T20:29:43.262Z,75.20
2018-06-11T20:32:15.977Z,75.30
2018-06-11T20:34:48.400Z,74.70
2018-06-11T20:37:20.831Z,75.20
2018-06-11T20:39:53.731Z,75.20
2018-06-11T20:42:26.461Z,75.70
2018-06-11T20:44:59.114Z,75.70
2018-06-11T20:47:31.807Z,75.70
2018-06-11T20:50:04.493Z,76.00
2018-06-11T20:52:37.167Z,76.10
2018-06-11T20:55:09.560Z,76.50
2018-06-11T20:57:41.957Z,76.80
2018-06-11T21:00:15.305Z,76.80
2018-06-11T21:02:47.995Z,77.30
2018-06-11T21:05:20.540Z,77.30
2018-06-11T21:07:53.073Z,78.10
2018-06-11T21:10:25.447Z,78.30
2018-06-11T21:12:57.845Z,78.90
2018-06-11T21:15:30.226Z,79.30
2018-06-11T21:18:02.654Z,80.60
2018-06-11T21:20:35.338Z,80.40
2018-06-11T21:23:07.716Z,80.80
2018-06-11T21:25:40.456Z,80.40
2018-06-11T21:28:12.851Z,80.20
2018-06-11T21:30:45.225Z,80.20
2018-06-11T21:33:17.892Z,80.00
2018-06-11T21:35:50.534Z,81.10
2018-06-11T21:38:22.916Z,80.90
2018-06-11T21:40:55.312Z,82.30
2018-06-11T21:43:27.710Z,81.40
2018-06-11T21:46:00.429Z,82.40
2018-06-11T21:48:33.118Z,82.10
2018-06-11T21:51:05.812Z,81.40
2018-06-11T21:53:38.516Z,82.80
2018-06-11T21:56:10.900Z,82.80
2018-06-11T21:58:43.293Z,83.80
2018-06-11T22:01:15.711Z,84.60
2018-06-11T22:03:48.152Z,85.20
2018-06-11T22:06:20.473Z,86.60
2018-06-11T22:08:52.841Z,86.90
2018-06-11T22:11:25.365Z,88.40
2018-06-11T22:13:57.765Z,88.60
2018-06-11T22:16:30.171Z,89.30
2018-06-11T22:19:02.552Z,90.00
2018-06-11T22:21:35.508Z,90.50
2018-06-11T22:24:07.926Z,90.00
2018-06-11T22:26:40.323Z,90.50
2018-06-11T22:29:13.261Z,90.70
2018-06-11T22:31:45.882Z,90.60
2018-06-11T22:34:18.518Z,90.70
2018-06-11T22:36:51.173Z,90.90
2018-06-11T22:39:23.873Z,91.10
2018-06-11T22:41:56.256Z,92.00
2018-06-11T22:44:28.616Z,91.70
2018-06-11T22:47:01.610Z,91.80
2018-06-11T22:49:33.996Z,91.80
2018-06-11T22:52:06.506Z,91.60
2018-06-11T22:54:38.955Z,92.10
2018-06-11T22:57:11.609Z,92.30
2018-06-11T22:59:44.348Z,92.20
2018-06-11T23:02:16.777Z,92.30
2018-06-11T23:04:49.394Z,92.70
2018-06-11T23:07:21.818Z,92.30
2018-06-11T23:09:54.245Z,91.90
2018-06-11T23:12:27.261Z,91.40
2018-06-11T23:17:31.929Z,91.60
2018-06-11T23:20:04.589Z,91.80
2018-06-11T23:22:36.989Z,91.40
2018-06-11T23:25:09.408Z,91.70
2018-06-11T23:27:42.088Z,91.60
2018-06-11T23:30:14.486Z,91.20
2018-06-11T23:32:46.897Z,91.70
2018-06-11T23:35:19.309Z,91.80
2018-06-11T23:37:51.742Z,91.80
2018-06-11T23:40:24.549Z,92.40
2018-06-11T23:42:57.225Z,92.30
2018-06-11T23:45:29.884Z,91.90
2018-06-11T23:48:02.574Z,91.70
2018-06-11T23:50:35.236Z,91.80
2018-06-11T23:53:07.620Z,91.60
2018-06-11T23:55:41.068Z,91.30
2018-06-11T23:58:19.537Z,91.80
